createdAt,value
2017-09-16T00:00:10.853Z,50.2
2017-09-16T00:02:05.632Z,50.2
2017-09-16T00:04:13.128Z,50.2
2017-09-16T00:06:05.806Z,50.2
2017-09-16T00:08:05.568Z,50.2
2017-09-16T00:10:05.867Z,50.2
2017-09-16T00:12:05.673Z,50.2
2017-09-16T00:14:05.424Z,50.3
2017-09-16T00:16:05.291Z,50.2
2017-09-16T00:18:08.422Z,50.3
2017-09-16T00:20:05.165Z,50.2
2017-09-16T00:22:05.933Z,50.3
2017-09-16T00:24:10.726Z,50.2
2017-09-16T00:26:05.471Z,50.2
2017-09-16T00:28:05.497Z,50.3
2017-09-16T00:30:05.155Z,50.2
2017-09-16T00:32:05.843Z,50.3
2017-09-16T00:34:05.808Z,50.3
2017-09-16T00:36:07.617Z,50.2
2017-09-16T00:38:05.400Z,50.2
2017-09-16T00:40:07.803Z,50.2
2017-09-16T00:42:05.089Z,50.2
2017-09-16T00:44:05.889Z,50.2
2017-09-16T00:46:05.733Z,50.2
2017-09-16T00:48:05.447Z,50.2
2017-09-16T00:50:05.686Z,50.2
2017-09-16T00:52:08.024Z,50.2
2017-09-16T00:54:05.320Z,50.2
2017-09-16T00:56:04.992Z,50.2
2017-09-16T00:58:05.802Z,50.2
2017-09-16T01:00:05.671Z,50.2
2017-09-16T01:02:05.457Z,50.2
2017-09-16T01:04:07.864Z,50.2
2017-09-16T01:06:05.558Z,50
2017-09-16T01:08:05.272Z,50.2
2017-09-16T01:10:08.535Z,50.2
2017-09-16T01:12:07.795Z,50
2017-09-16T01:14:05.511Z,50.2
2017-09-16T01:16:05.591Z,50.2
2017-09-16T01:18:05.530Z,50
2017-09-16T01:20:05.290Z,50.2
2017-09-16T01:22:05.984Z,50
2017-09-16T01:24:05.702Z,50
2017-09-16T01:26:15.548Z,50
2017-09-16T01:28:07.998Z,50
2017-09-16T01:30:05.676Z,50
2017-09-16T01:32:06.251Z,50.2
2017-09-16T01:34:06.087Z,50.2
2017-09-16T01:36:05.824Z,50.2
2017-09-16T01:38:05.490Z,50
2017-09-16T01:40:10.915Z,50
2017-09-16T01:42:05.652Z,50.2
2017-09-16T01:44:10.482Z,50
2017-09-16T01:46:07.837Z,50
2017-09-16T01:48:08.116Z,50
2017-09-16T01:50:05.823Z,50
2017-09-16T01:52:08.259Z,50
2017-09-16T01:54:06.004Z,50
2017-09-16T01:56:05.764Z,50
2017-09-16T01:58:05.647Z,50
2017-09-16T02:00:05.391Z,50
2017-09-16T02:02:07.650Z,50
2017-09-16T02:04:05.500Z,50
2017-09-16T02:06:05.189Z,50
2017-09-16T02:08:08.518Z,50
2017-09-16T02:10:05.314Z,50
2017-09-16T02:12:05.032Z,50
2017-09-16T02:14:05.223Z,50
2017-09-16T02:16:06.152Z,50
2017-09-16T02:18:10.129Z,50
2017-09-16T02:20:08.417Z,50
2017-09-16T02:22:05.174Z,50
2017-09-16T02:24:08.465Z,50
2017-09-16T02:26:05.174Z,50
2017-09-16T02:28:10.928Z,50
2017-09-16T02:30:05.642Z,50
2017-09-16T02:32:05.368Z,50
2017-09-16T02:34:05.087Z,50
2017-09-16T02:36:05.943Z,50
2017-09-16T02:38:05.723Z,50
2017-09-16T02:40:05.525Z,50
2017-09-16T02:42:05.725Z,50
2017-09-16T02:44:06.005Z,50
2017-09-16T02:46:05.269Z,50
2017-09-16T02:48:05.997Z,50
2017-09-16T02:50:13.308Z,49.8
2017-09-16T02:52:07.779Z,49.8
2017-09-16T02:54:10.143Z,49.8
2017-09-16T02:56:05.803Z,49.8
2017-09-16T02:58:05.694Z,50
2017-09-16T03:00:05.382Z,49.8
2017-09-16T03:02:07.801Z,50
2017-09-16T03:04:05.646Z,50
2017-09-16T03:06:08.507Z,49.8
2017-09-16T03:08:06.166Z,49.8
2017-09-16T03:10:05.907Z,50
2017-09-16T03:12:05.139Z,50
2017-09-16T03:14:08.474Z,50
2017-09-16T03:16:05.364Z,49.8
2017-09-16T03:18:05.238Z,49.8
2017-09-16T03:20:07.964Z,49.8
2017-09-16T03:22:05.805Z,50
2017-09-16T03:24:05.817Z,49.8
2017-09-16T03:26:05.141Z,49.8
2017-09-16T03:28:05.978Z,49.8
2017-09-16T03:30:05.687Z,49.8
2017-09-16T03:32:08.426Z,49.8
2017-09-16T03:34:05.286Z,49.8
2017-09-16T03:36:06.011Z,49.8
2017-09-16T03:38:07.760Z,49.4
2017-09-16T03:40:05.770Z,49.4
2017-09-16T03:42:05.495Z,49.6
2017-09-16T03:44:07.783Z,49.7
2017-09-16T03:46:05.368Z,49.7
2017-09-16T03:48:05.183Z,49.8
2017-09-16T03:50:05.892Z,49.8
2017-09-16T03:52:05.792Z,49.8
2017-09-16T03:54:04.983Z,49.8
2017-09-16T03:56:10.900Z,49.8
2017-09-16T03:58:08.340Z,49.8
2017-09-16T04:00:12.596Z,49.8
2017-09-16T04:02:05.790Z,49.8
2017-09-16T04:04:08.366Z,49.8
2017-09-16T04:06:05.101Z,49.5
2017-09-16T04:08:05.814Z,49.5
2017-09-16T04:10:05.686Z,49.5
2017-09-16T04:12:05.564Z,49.8
2017-09-16T04:14:05.324Z,49.8
2017-09-16T04:16:05.334Z,49.8
2017-09-16T04:18:05.324Z,49.8
2017-09-16T04:20:05.099Z,49.8
2017-09-16T04:22:10.908Z,49.5
2017-09-16T04:24:08.146Z,49.5
2017-09-16T04:26:05.879Z,49.5
2017-09-16T04:28:05.732Z,49.5
2017-09-16T04:30:05.403Z,49.5
2017-09-16T04:32:05.133Z,49.5
2017-09-16T04:34:05.812Z,49.5
2017-09-16T04:36:08.036Z,49.8
2017-09-16T04:38:05.692Z,49.8
2017-09-16T04:40:05.365Z,49.5
2017-09-16T04:42:07.597Z,49.5
2017-09-16T04:44:05.451Z,49.5
2017-09-16T04:46:05.201Z,49.5
2017-09-16T04:48:14.431Z,50.1
2017-09-16T04:50:05.709Z,49.6
2017-09-16T04:52:05.715Z,49.5
2017-09-16T04:54:05.426Z,49.5
2017-09-16T04:56:05.236Z,49.5
2017-09-16T04:58:05.983Z,49.5
2017-09-16T05:00:05.787Z,49.5
2017-09-16T05:02:05.044Z,49.5
2017-09-16T05:04:08.392Z,49.5
2017-09-16T05:06:05.662Z,49.5
2017-09-16T05:08:05.950Z,49.5
2017-09-16T05:10:08.334Z,49.5
2017-09-16T05:12:07.563Z,49.5
2017-09-16T05:14:05.286Z,49.5
2017-09-16T05:16:06.198Z,49.5
2017-09-16T05:18:05.255Z,49.5
2017-09-16T05:20:05.956Z,49.5
2017-09-16T05:22:06.034Z,49.5
2017-09-16T05:24:05.754Z,49.5
2017-09-16T05:26:05.429Z,49.5
2017-09-16T05:28:05.517Z,49.4
2017-09-16T05:30:07.693Z,49.5
2017-09-16T05:32:05.603Z,49.5
2017-09-16T05:34:07.887Z,49.5
2017-09-16T05:36:05.136Z,49.5
2017-09-16T05:38:05.805Z,49.5
2017-09-16T05:40:05.184Z,49.8
2017-09-16T05:42:06.114Z,49.5
2017-09-16T05:44:05.902Z,49.6
2017-09-16T05:46:08.137Z,49.4
2017-09-16T05:48:08.025Z,49.4
2017-09-16T05:50:05.724Z,49.4
2017-09-16T05:52:08.197Z,49.4
2017-09-16T05:54:05.988Z,49.4
2017-09-16T05:56:05.235Z,49.5
2017-09-16T05:58:11.026Z,49.5
2017-09-16T06:00:05.679Z,49.3
2017-09-16T06:02:05.400Z,49.6
2017-09-16T06:04:05.670Z,49.6
2017-09-16T06:06:05.382Z,49.6
2017-09-16T06:08:05.582Z,49.5
2017-09-16T06:10:05.405Z,49.5
2017-09-16T06:12:05.128Z,49.8
2017-09-16T06:14:05.888Z,49.7
2017-09-16T06:16:05.830Z,49.8
2017-09-16T06:18:08.422Z,49.7
2017-09-16T06:20:05.353Z,49.8
2017-09-16T06:22:05.172Z,49.6
2017-09-16T06:24:05.856Z,49.9
2017-09-16T06:26:13.138Z,49.8
2017-09-16T06:28:05.951Z,49.8
2017-09-16T06:30:05.684Z,49.8
2017-09-16T06:32:13.032Z,49.9
2017-09-16T06:34:08.459Z,49.9
2017-09-16T06:36:05.240Z,49.9
2017-09-16T06:38:05.938Z,49.9
2017-09-16T06:40:08.371Z,50
2017-09-16T06:42:05.066Z,50
2017-09-16T06:44:05.290Z,49.9
2017-09-16T06:46:06.031Z,49.9
2017-09-16T06:48:05.708Z,49.8
2017-09-16T06:50:05.453Z,49.8
2017-09-16T06:52:07.674Z,50
2017-09-16T06:54:05.901Z,50
2017-09-16T06:56:05.611Z,49.9
2017-09-16T06:58:08.220Z,50.1
2017-09-16T07:00:05.430Z,50.1
2017-09-16T07:02:05.176Z,50.1
2017-09-16T07:04:06.019Z,49.9
2017-09-16T07:06:05.691Z,50.2
2017-09-16T07:08:05.539Z,50.1
2017-09-16T07:10:05.230Z,50.1
2017-09-16T07:12:08.044Z,50.2
2017-09-16T07:14:10.778Z,50.1
2017-09-16T07:16:05.495Z,50.1
2017-09-16T07:18:05.419Z,50.1
2017-09-16T07:20:07.656Z,50
2017-09-16T07:22:10.575Z,50
2017-09-16T07:24:05.400Z,49.8
2017-09-16T07:26:05.602Z,49.8
2017-09-16T07:28:05.341Z,49.8
2017-09-16T07:30:05.593Z,49.8
2017-09-16T07:32:05.262Z,49.8
2017-09-16T07:34:07.192Z,49.9
2017-09-16T07:36:05.177Z,49.8
2017-09-16T07:38:10.988Z,49.9
2017-09-16T07:40:08.111Z,49.8
2017-09-16T07:42:05.788Z,49.9
2017-09-16T07:44:05.578Z,49.9
2017-09-16T07:46:08.472Z,50
2017-09-16T07:48:07.728Z,49.8
2017-09-16T07:50:08.001Z,50.1
2017-09-16T07:52:07.777Z,50.1
2017-09-16T07:54:10.520Z,50.1
2017-09-16T07:56:07.761Z,50.2
2017-09-16T07:58:11.094Z,50.2
2017-09-16T08:00:05.752Z,50.3
2017-09-16T08:02:05.428Z,50.3
2017-09-16T08:04:05.431Z,50.5
2017-09-16T08:06:05.156Z,50.4
2017-09-16T08:08:05.902Z,50.4
2017-09-16T08:10:05.950Z,50.4
2017-09-16T08:12:18.068Z,50.3
2017-09-16T08:14:05.860Z,50.5
2017-09-16T08:16:05.709Z,50.5
2017-09-16T08:18:05.649Z,50.5
2017-09-16T08:20:10.930Z,50.6
2017-09-16T08:22:05.809Z,50.6
2017-09-16T08:24:07.584Z,50.4
2017-09-16T08:26:05.342Z,50.6
2017-09-16T08:28:07.715Z,50.5
2017-09-16T08:30:05.368Z,50.5
2017-09-16T08:32:05.051Z,50.4
2017-09-16T08:34:05.878Z,50.4
2017-09-16T08:36:05.611Z,50.6
2017-09-16T08:38:05.847Z,50.5
2017-09-16T08:40:05.819Z,50.5
2017-09-16T08:42:08.034Z,50.3
2017-09-16T08:44:05.747Z,50.3
2017-09-16T08:46:05.631Z,50.5
2017-09-16T08:48:10.450Z,50.4
2017-09-16T08:50:07.749Z,50.5
2017-09-16T08:52:05.607Z,50.5
2017-09-16T08:54:07.810Z,50.5
2017-09-16T08:56:04.998Z,50.4
2017-09-16T08:58:08.259Z,50.4
2017-09-16T09:00:05.682Z,50.4
2017-09-16T09:02:07.912Z,50.4
2017-09-16T09:04:05.766Z,50.4
2017-09-16T09:06:05.510Z,50.6
2017-09-16T09:08:05.223Z,50.6
2017-09-16T09:10:06.140Z,50.5
2017-09-16T09:12:08.409Z,50.3
2017-09-16T09:14:05.069Z,50.3
2017-09-16T09:16:05.960Z,50.2
2017-09-16T09:18:05.115Z,49.8
2017-09-16T09:20:05.812Z,50
2017-09-16T09:22:05.592Z,50.1
2017-09-16T09:24:05.297Z,50.2
2017-09-16T09:26:07.618Z,50.2
2017-09-16T09:28:05.450Z,50.2
2017-09-16T09:30:05.198Z,50.3
2017-09-16T09:32:05.742Z,50.5
2017-09-16T09:34:05.438Z,50.4
2017-09-16T09:36:05.121Z,50.3
2017-09-16T09:38:05.883Z,50.3
2017-09-16T09:40:05.674Z,50
2017-09-16T09:42:07.904Z,49.8
2017-09-16T09:44:05.557Z,49.8
2017-09-16T09:46:05.790Z,50.2
2017-09-16T09:48:06.159Z,50.3
2017-09-16T09:50:05.340Z,50.1
2017-09-16T09:52:13.205Z,50.1
2017-09-16T09:54:08.470Z,50.3
2017-09-16T09:56:05.667Z,50.3
2017-09-16T09:58:13.094Z,50.3
2017-09-16T10:00:08.357Z,50.3
2017-09-16T10:02:07.601Z,49.9
2017-09-16T10:04:05.874Z,49.6
2017-09-16T10:06:05.615Z,49.9
2017-09-16T10:08:05.346Z,50
2017-09-16T10:10:05.096Z,49.8
2017-09-16T10:12:05.838Z,49.8
2017-09-16T10:14:05.535Z,49.6
2017-09-16T10:16:05.309Z,49.6
2017-09-16T10:18:07.863Z,49.6
2017-09-16T10:20:05.514Z,49.6
2017-09-16T10:22:05.251Z,49.4
2017-09-16T10:24:05.951Z,49.4
2017-09-16T10:26:05.825Z,49.4
2017-09-16T10:28:05.584Z,49.4
2017-09-16T10:30:05.268Z,49.2
2017-09-16T10:32:06.103Z,49.4
2017-09-16T10:34:05.824Z,49.2
2017-09-16T10:36:08.040Z,49.2
2017-09-16T10:38:10.808Z,49.2
2017-09-16T10:40:05.509Z,49.2
2017-09-16T10:42:13.376Z,48.9
2017-09-16T10:44:05.254Z,48.9
2017-09-16T10:46:05.501Z,48.9
2017-09-16T10:48:05.354Z,49.1
2017-09-16T10:50:08.219Z,49.1
2017-09-16T10:52:16.104Z,49.2
2017-09-16T10:54:05.776Z,49.2
2017-09-16T10:56:08.191Z,48.9
2017-09-16T10:58:05.894Z,48.9
2017-09-16T11:00:06.714Z,49
2017-09-16T11:02:05.648Z,49
2017-09-16T11:04:08.211Z,49
2017-09-16T11:06:06.218Z,49.1
2017-09-16T11:08:08.820Z,49
2017-09-16T11:10:05.077Z,49
2017-09-16T11:12:05.783Z,49.3
2017-09-16T11:14:06.207Z,49.2
2017-09-16T11:16:05.918Z,49.1
2017-09-16T11:18:05.328Z,49.1
2017-09-16T11:20:05.186Z,48.8
2017-09-16T11:22:05.420Z,49
2017-09-16T11:24:05.153Z,49
2017-09-16T11:26:05.961Z,49
2017-09-16T11:28:05.652Z,49.1
2017-09-16T11:30:05.955Z,49.1
2017-09-16T11:32:05.828Z,49.1
2017-09-16T11:34:05.594Z,49.1
2017-09-16T11:36:05.265Z,48.8
2017-09-16T11:38:06.113Z,49.1
2017-09-16T11:40:10.903Z,48.9
2017-09-16T11:42:08.151Z,49.1
2017-09-16T11:44:06.080Z,48.9
2017-09-16T11:46:05.737Z,48.9
2017-09-16T11:48:06.012Z,48.9
2017-09-16T11:50:05.994Z,48.9
2017-09-16T11:52:10.784Z,49
2017-09-16T11:54:12.838Z,48.9
2017-09-16T11:56:06.004Z,48.9
2017-09-16T11:58:05.695Z,48.9
2017-09-16T12:00:05.362Z,48.9
2017-09-16T12:02:05.087Z,48.9
2017-09-16T12:04:05.390Z,48.9
2017-09-16T12:06:05.166Z,49
2017-09-16T12:08:05.552Z,48.8
2017-09-16T12:10:07.787Z,49
2017-09-16T12:12:05.056Z,49
2017-09-16T12:14:12.876Z,49
2017-09-16T12:16:05.161Z,48.8
2017-09-16T12:18:05.065Z,48.8
2017-09-16T12:20:05.816Z,48.8
2017-09-16T12:22:05.648Z,48.6
2017-09-16T12:24:05.607Z,48.8
2017-09-16T12:26:05.721Z,48.8
2017-09-16T12:28:05.086Z,48.8
2017-09-16T12:30:05.323Z,48.9
2017-09-16T12:32:10.219Z,48.9
2017-09-16T12:34:05.926Z,48.8
2017-09-16T12:36:05.342Z,48.9
2017-09-16T12:38:13.418Z,48.7
2017-09-16T12:40:05.122Z,48.4
2017-09-16T12:42:08.093Z,48.8
2017-09-16T12:44:08.007Z,48.8
2017-09-16T12:46:05.753Z,48.6
2017-09-16T12:48:05.484Z,48.4
2017-09-16T12:50:08.443Z,48.5
2017-09-16T12:52:05.203Z,48.5
2017-09-16T12:54:08.454Z,48.7
2017-09-16T12:56:08.353Z,48.8
2017-09-16T12:58:05.197Z,48.7
2017-09-16T13:00:05.523Z,48.8
2017-09-16T13:02:05.894Z,48.7
2017-09-16T13:04:05.608Z,48.8
2017-09-16T13:06:05.818Z,48.8
2017-09-16T13:08:08.227Z,48.8
2017-09-16T13:10:05.453Z,49.1
2017-09-16T13:12:07.684Z,48.8
2017-09-16T13:14:05.423Z,49.1
2017-09-16T13:16:05.148Z,48.9
2017-09-16T13:18:05.104Z,48.8
2017-09-16T13:20:05.318Z,48.9
2017-09-16T13:22:05.062Z,48.9
2017-09-16T13:24:08.262Z,48.9
2017-09-16T13:26:11.136Z,48.9
2017-09-16T13:28:08.326Z,48.9
2017-09-16T13:30:05.018Z,48.9
2017-09-16T13:32:05.923Z,48.7
2017-09-16T13:34:05.714Z,48.9
2017-09-16T13:36:08.473Z,48.8
2017-09-16T13:38:05.201Z,48.9
2017-09-16T13:40:05.925Z,48.9
2017-09-16T13:42:06.077Z,48.9
2017-09-16T13:44:11.420Z,48.8
2017-09-16T13:46:05.397Z,48.9
2017-09-16T13:48:05.139Z,48.8
2017-09-16T13:50:06.294Z,48.8
2017-09-16T13:52:06.024Z,48.9
2017-09-16T13:54:05.328Z,48.9
2017-09-16T13:56:05.698Z,48.9
2017-09-16T13:58:05.403Z,48.9
2017-09-16T14:00:05.687Z,48.9
2017-09-16T14:02:08.068Z,48.8
2017-09-16T14:04:08.347Z,48.8
2017-09-16T14:06:05.044Z,48.8
2017-09-16T14:08:10.873Z,48.9
2017-09-16T14:10:05.587Z,48.9
2017-09-16T14:12:05.291Z,48.9
2017-09-16T14:14:11.213Z,48.8
2017-09-16T14:16:08.467Z,48.9
2017-09-16T14:18:08.628Z,48.9
2017-09-16T14:20:08.091Z,49.1
2017-09-16T14:22:05.777Z,48.9
2017-09-16T14:24:05.790Z,48.7
2017-09-16T14:26:05.587Z,48.8
2017-09-16T14:28:05.318Z,48.8
2017-09-16T14:30:07.546Z,49.1
2017-09-16T14:32:05.419Z,48.8
2017-09-16T14:34:05.156Z,49.1
2017-09-16T14:36:05.845Z,49.1
2017-09-16T14:38:05.850Z,49.1
2017-09-16T14:40:05.576Z,49.1
2017-09-16T14:42:05.275Z,49.1
2017-09-16T14:44:06.152Z,49.1
2017-09-16T14:46:07.093Z,49.1
2017-09-16T14:48:05.821Z,49
2017-09-16T14:50:05.935Z,49.1
2017-09-16T14:52:05.741Z,49.1
2017-09-16T14:54:10.563Z,49.2
2017-09-16T14:56:05.367Z,49.2
2017-09-16T14:58:05.055Z,49.2
2017-09-16T15:00:05.818Z,49.1
2017-09-16T15:02:05.708Z,49.2
2017-09-16T15:04:05.488Z,49.2
2017-09-16T15:06:10.438Z,49.2
2017-09-16T15:08:05.180Z,49.2
2017-09-16T15:10:05.936Z,49.2
2017-09-16T15:12:05.634Z,49.2
2017-09-16T15:14:05.905Z,49.3
2017-09-16T15:16:05.589Z,49.3
2017-09-16T15:18:05.529Z,49.3
2017-09-16T15:20:08.136Z,49.2
2017-09-16T15:22:10.785Z,49.4
2017-09-16T15:24:05.070Z,49.3
2017-09-16T15:26:05.926Z,49.3
2017-09-16T15:28:05.746Z,49.3
2017-09-16T15:30:05.289Z,49.4
2017-09-16T15:32:06.080Z,49.4
2017-09-16T15:34:05.803Z,49.4
2017-09-16T15:36:08.050Z,49.4
2017-09-16T15:38:06.646Z,49.4
2017-09-16T15:40:07.902Z,49.5
2017-09-16T15:42:05.630Z,49.5
2017-09-16T15:44:07.846Z,49.5
2017-09-16T15:46:05.589Z,49.5
2017-09-16T15:48:05.326Z,49.3
2017-09-16T15:50:05.068Z,49.3
2017-09-16T15:52:08.311Z,49.2
2017-09-16T15:54:06.453Z,49.2
2017-09-16T15:56:10.433Z,49.3
2017-09-16T15:58:05.204Z,49.3
2017-09-16T16:00:05.518Z,49.2
2017-09-16T16:02:05.437Z,49.3
2017-09-16T16:04:05.186Z,49.3
2017-09-16T16:06:05.510Z,49.3
2017-09-16T16:08:05.570Z,49.3
2017-09-16T16:10:05.800Z,49.3
2017-09-16T16:12:06.862Z,49.2
2017-09-16T16:14:05.362Z,49.3
2017-09-16T16:16:05.053Z,49.3
2017-09-16T16:18:05.980Z,49.3
2017-09-16T16:20:08.247Z,49.4
2017-09-16T16:22:05.921Z,49.4
2017-09-16T16:24:05.688Z,49.4
2017-09-16T16:26:05.742Z,49.4
2017-09-16T16:28:05.484Z,49.4
2017-09-16T16:30:05.195Z,49.4
2017-09-16T16:32:06.170Z,49.4
2017-09-16T16:34:05.288Z,49.4
2017-09-16T16:36:10.105Z,49.1
2017-09-16T16:38:06.012Z,49.3
2017-09-16T16:40:05.716Z,49.4
2017-09-16T16:42:05.461Z,49.4
2017-09-16T16:44:05.318Z,49.4
2017-09-16T16:46:10.106Z,49.1
2017-09-16T16:48:05.294Z,49.1
2017-09-16T16:50:05.146Z,49.2
2017-09-16T16:52:08.586Z,49.1
2017-09-16T16:54:05.863Z,49.1
2017-09-16T16:56:08.263Z,49.2
2017-09-16T16:58:06.110Z,49.2
2017-09-16T17:00:05.807Z,49.2
2017-09-16T17:02:05.655Z,49.2
2017-09-16T17:04:07.862Z,49.2
2017-09-16T17:06:05.054Z,49.2
2017-09-16T17:08:05.514Z,49.2
2017-09-16T17:10:05.196Z,49.2
2017-09-16T17:12:08.511Z,49.2
2017-09-16T17:14:06.096Z,49.2
2017-09-16T17:16:06.097Z,49.2
2017-09-16T17:18:06.518Z,50.1
2017-09-16T17:20:10.299Z,48.5
2017-09-16T17:22:05.684Z,48.5
2017-09-16T17:24:08.208Z,47.5
2017-09-16T17:26:06.089Z,47.7
2017-09-16T17:28:12.599Z,47.1
2017-09-16T17:30:05.422Z,46.9
2017-09-16T17:32:10.312Z,46.7
2017-09-16T17:34:06.024Z,46.7
2017-09-16T17:36:05.790Z,47.5
2017-09-16T17:38:05.683Z,46.2
2017-09-16T17:40:05.457Z,45.8
2017-09-16T17:42:05.211Z,45.6
2017-09-16T17:44:05.963Z,45.5
2017-09-16T17:46:05.819Z,45.4
2017-09-16T17:48:05.520Z,45.3
2017-09-16T17:50:05.697Z,45
2017-09-16T17:52:10.597Z,43.9
2017-09-16T17:54:05.324Z,43.9
2017-09-16T17:56:05.205Z,44.1
2017-09-16T17:58:07.686Z,43.7
2017-09-16T18:00:05.355Z,43.7
2017-09-16T18:02:10.288Z,44
2017-09-16T18:04:05.998Z,44
2017-09-16T18:06:05.914Z,44.8
2017-09-16T18:08:05.431Z,44.9
2017-09-16T18:10:05.327Z,45.3
2017-09-16T18:12:05.130Z,45.5
2017-09-16T18:14:05.833Z,45.6
2017-09-16T18:16:05.067Z,45.7
2017-09-16T18:18:05.696Z,46.3
2017-09-16T18:20:08.268Z,46.2
2017-09-16T18:22:05.029Z,46.2
2017-09-16T18:24:05.734Z,46.1
2017-09-16T18:26:05.458Z,45.9
2017-09-16T18:28:05.136Z,46.1
2017-09-16T18:30:05.388Z,46.2
2017-09-16T18:32:05.680Z,46.3
2017-09-16T18:34:05.597Z,46.4
2017-09-16T18:36:05.883Z,46.4
2017-09-16T18:38:05.603Z,46.3
2017-09-16T18:40:05.349Z,46.7
2017-09-16T18:42:05.151Z,46.7
2017-09-16T18:44:07.197Z,46.7
2017-09-16T18:46:06.729Z,46.7
2017-09-16T18:48:05.489Z,46.7
2017-09-16T18:50:05.744Z,46.7
2017-09-16T18:52:05.542Z,46.9
2017-09-16T18:54:07.971Z,47
2017-09-16T18:56:05.799Z,47
2017-09-16T18:58:05.764Z,46.9
2017-09-16T19:00:05.523Z,46.9
2017-09-16T19:02:08.426Z,46.9
2017-09-16T19:04:08.318Z,46.8
2017-09-16T19:06:05.831Z,46.5
2017-09-16T19:08:05.642Z,46.7
2017-09-16T19:10:05.363Z,46.4
2017-09-16T19:12:05.169Z,46.4
2017-09-16T19:14:06.008Z,46.4
2017-09-16T19:16:05.229Z,46.2
2017-09-16T19:18:05.147Z,46.2
2017-09-16T19:20:13.171Z,46.1
2017-09-16T19:22:05.914Z,46.1
2017-09-16T19:24:10.689Z,46.3
2017-09-16T19:26:05.538Z,46.3
2017-09-16T19:28:05.278Z,46.4
2017-09-16T19:30:08.295Z,46.3
2017-09-16T19:32:05.991Z,46.3
2017-09-16T19:34:11.136Z,46.3
2017-09-16T19:36:05.373Z,46.3
2017-09-16T19:38:05.443Z,46.2
2017-09-16T19:40:05.990Z,46.2
2017-09-16T19:42:05.815Z,46.4
2017-09-16T19:44:08.386Z,46.8
2017-09-16T19:46:05.118Z,46.8
2017-09-16T19:48:05.810Z,47
2017-09-16T19:50:05.878Z,46.9
2017-09-16T19:52:05.567Z,46.9
2017-09-16T19:54:05.274Z,46.9
2017-09-16T19:56:06.140Z,47
2017-09-16T19:58:05.851Z,47
2017-09-16T20:00:05.558Z,47.4
2017-09-16T20:02:05.455Z,47.5
2017-09-16T20:04:05.153Z,47.5
2017-09-16T20:06:08.384Z,48
2017-09-16T20:08:05.424Z,48
2017-09-16T20:10:05.837Z,48
2017-09-16T20:12:06.554Z,48
2017-09-16T20:14:05.309Z,48.1
2017-09-16T20:16:05.244Z,48.1
2017-09-16T20:18:05.253Z,48.1
2017-09-16T20:20:06.121Z,47.9
2017-09-16T20:22:06.974Z,48
2017-09-16T20:24:05.919Z,47.9
2017-09-16T20:26:05.798Z,47.9
2017-09-16T20:28:10.623Z,47.9
2017-09-16T20:30:05.325Z,47.9
2017-09-16T20:32:05.355Z,47.9
2017-09-16T20:34:05.258Z,47.9
2017-09-16T20:36:05.973Z,47.6
2017-09-16T20:38:08.298Z,47.3
2017-09-16T20:40:08.054Z,47.5
2017-09-16T20:42:06.010Z,47.5
2017-09-16T20:44:05.904Z,47.3
2017-09-16T20:46:05.617Z,47.5
2017-09-16T20:48:05.349Z,47.4
2017-09-16T20:50:08.287Z,47.1
2017-09-16T20:52:05.715Z,47
2017-09-16T20:54:05.397Z,46.9
2017-09-16T20:56:05.435Z,46.8
2017-09-16T20:58:05.266Z,47
2017-09-16T21:00:06.012Z,46.9
2017-09-16T21:02:05.414Z,46.9
2017-09-16T21:04:07.872Z,46.5
2017-09-16T21:06:08.137Z,46.8
2017-09-16T21:08:13.536Z,46.9
2017-09-16T21:10:05.244Z,46.9
2017-09-16T21:12:05.936Z,47.1
2017-09-16T21:14:05.776Z,47.3
2017-09-16T21:16:05.489Z,47.4
2017-09-16T21:18:05.470Z,47.4
2017-09-16T21:20:07.804Z,47.4
2017-09-16T21:22:05.029Z,47.4
2017-09-16T21:24:05.725Z,47.6
2017-09-16T21:26:05.613Z,47.6
2017-09-16T21:28:07.914Z,47.7
2017-09-16T21:30:05.778Z,47.6
2017-09-16T21:32:05.620Z,47.7
2017-09-16T21:36:05.056Z,48
2017-09-16T21:38:10.227Z,47.9
2017-09-16T21:40:18.601Z,48.2
2017-09-16T21:42:05.334Z,48.2
2017-09-16T21:44:05.033Z,48.2
2017-09-16T21:46:13.632Z,46.9
2017-09-16T21:48:05.907Z,46.9
2017-09-16T21:50:08.505Z,46.4
2017-09-16T21:52:05.261Z,46.4
2017-09-16T21:54:08.496Z,47
2017-09-16T21:56:05.431Z,47
2017-09-16T21:58:05.148Z,47.4
2017-09-16T22:00:05.877Z,47.5
2017-09-16T22:02:08.125Z,47.5
2017-09-16T22:04:10.861Z,47.5
2017-09-16T22:06:05.544Z,47.5
2017-09-16T22:08:08.031Z,47.8
2017-09-16T22:10:05.292Z,47.8
2017-09-16T22:12:06.035Z,47.9
2017-09-16T22:14:11.039Z,47.9
2017-09-16T22:16:08.295Z,47.9
2017-09-16T22:18:05.408Z,47.9
2017-09-16T22:20:05.303Z,48
2017-09-16T22:22:07.542Z,48
2017-09-16T22:24:10.309Z,48
2017-09-16T22:26:06.189Z,48
2017-09-16T22:28:05.408Z,48.2
2017-09-16T22:30:05.096Z,48
2017-09-16T22:32:06.011Z,48
2017-09-16T22:34:05.762Z,48.3
2017-09-16T22:36:10.520Z,48.1
2017-09-16T22:38:05.317Z,48.1
2017-09-16T22:40:06.016Z,48.2
2017-09-16T22:42:05.753Z,48.1
2017-09-16T22:44:05.579Z,48.1
2017-09-16T22:46:16.003Z,48.1
2017-09-16T22:48:10.324Z,48.4
2017-09-16T22:50:08.343Z,48.4
2017-09-16T22:52:07.548Z,48.3
2017-09-16T22:54:05.779Z,48.3
2017-09-16T22:56:05.644Z,48.2
2017-09-16T22:58:06.382Z,48.2
2017-09-16T23:00:05.131Z,48.2
2017-09-16T23:02:05.990Z,48.2
2017-09-16T23:04:05.775Z,48.1
2017-09-16T23:06:05.704Z,48.3
2017-09-16T23:08:05.430Z,48.5
2017-09-16T23:10:17.753Z,48.9
2017-09-16T23:12:05.439Z,48.9
2017-09-16T23:14:05.145Z,48.6
2017-09-16T23:16:05.375Z,48.8
2017-09-16T23:18:05.385Z,48.8
2017-09-16T23:20:05.253Z,48.7
2017-09-16T23:22:06.060Z,48.5
2017-09-16T23:24:05.788Z,47.4
2017-09-16T23:26:07.700Z,46.7
2017-09-16T23:28:05.950Z,46.8
2017-09-16T23:30:05.650Z,47
2017-09-16T23:32:07.916Z,47.6
2017-09-16T23:34:05.601Z,47.7
2017-09-16T23:36:05.781Z,48
2017-09-16T23:38:05.779Z,48
2017-09-16T23:40:05.160Z,48
2017-09-16T23:42:05.395Z,47.9
2017-09-16T23:44:07.824Z,48.2
2017-09-16T23:46:05.524Z,48.2
2017-09-16T23:48:05.396Z,48.2
2017-09-16T23:50:07.657Z,48
2017-09-16T23:52:05.916Z,48
2017-09-16T23:54:05.959Z,48.5
2017-09-16T23:56:05.726Z,48.4
2017-09-16T23:58:07.958Z,48.3
